sensor_id;sensor_type;location;lat;lon;timestamp;P1;durP1;ratioP1;P2;durP2;ratioP2
68176;SDS011;56478;50.982;7.032;2022-11-15T00:00:48;6.38;;;5.78;;
68176;SDS011;56478;50.982;7.032;2022-11-15T00:03:15;8.30;;;5.30;;
68176;SDS011;56478;50.982;7.032;2022-11-15T00:05:41;6.32;;;5.70;;
68176;SDS011;56478;50.982;7.032;2022-11-15T00:08:07;7.85;;;5.55;;
68176;SDS011;56478;50.982;7.032;2022-11-15T00:10:33;10.85;;;5.80;;
68176;SDS011;56478;50.982;7.032;2022-11-15T00:12:58;7.53;;;5.38;;
68176;SDS011;56478;50.982;7.032;2022-11-15T00:15:24;6.28;;;5.22;;
68176;SDS011;56478;50.982;7.032;2022-11-15T00:17:50;6.72;;;5.00;;
68176;SDS011;56478;50.982;7.032;2022-11-15T00:20:16;6.10;;;5.45;;
68176;SDS011;56478;50.982;7.032;2022-11-15T00:22:42;8.38;;;5.70;;
68176;SDS011;56478;50.982;7.032;2022-11-15T00:25:08;7.22;;;5.47;;
68176;SDS011;56478;50.982;7.032;2022-11-15T00:27:33;11.57;;;5.82;;
68176;SDS011;56478;50.982;7.032;2022-11-15T00:29:59;6.97;;;5.32;;
68176;SDS011;56478;50.982;7.032;2022-11-15T00:32:25;6.05;;;5.50;;
68176;SDS011;56478;50.982;7.032;2022-11-15T00:34:51;8.02;;;5.55;;
68176;SDS011;56478;50.982;7.032;2022-11-15T00:37:16;6.30;;;5.30;;
68176;SDS011;56478;50.982;7.032;2022-11-15T00:39:42;9.75;;;6.03;;
68176;SDS011;56478;50.982;7.032;2022-11-15T00:42:07;9.10;;;5.78;;
68176;SDS011;56478;50.982;7.032;2022-11-15T00:44:33;5.90;;;5.30;;
68176;SDS011;56478;50.982;7.032;2022-11-15T00:46:58;8.80;;;5.88;;
68176;SDS011;56478;50.982;7.032;2022-11-15T00:49:23;8.90;;;5.53;;
68176;SDS011;56478;50.982;7.032;2022-11-15T00:51:49;9.93;;;5.55;;
68176;SDS011;56478;50.982;7.032;2022-11-15T00:54:14;7.93;;;5.63;;
68176;SDS011;56478;50.982;7.032;2022-11-15T00:56:40;6.70;;;5.65;;
68176;SDS011;56478;50.982;7.032;2022-11-15T00:59:05;9.07;;;5.22;;
68176;SDS011;56478;50.982;7.032;2022-11-15T01:01:31;7.05;;;5.40;;
68176;SDS011;56478;50.982;7.032;2022-11-15T01:03:56;9.05;;;5.28;;
68176;SDS011;56478;50.982;7.032;2022-11-15T01:06:22;6.30;;;5.50;;
68176;SDS011;56478;50.982;7.032;2022-11-15T01:08:48;9.23;;;5.93;;
68176;SDS011;56478;50.982;7.032;2022-11-15T01:11:13;6.50;;;5.40;;
68176;SDS011;56478;50.982;7.032;2022-11-15T01:13:39;10.38;;;6.05;;
68176;SDS011;56478;50.982;7.032;2022-11-15T01:16:15;6.95;;;5.53;;
68176;SDS011;56478;50.982;7.032;2022-11-15T01:18:44;7.45;;;5.03;;
68176;SDS011;56478;50.982;7.032;2022-11-15T01:21:14;6.32;;;5.35;;
68176;SDS011;56478;50.982;7.032;2022-11-15T01:23:41;7.75;;;5.78;;
68176;SDS011;56478;50.982;7.032;2022-11-15T01:26:09;7.55;;;5.22;;
68176;SDS011;56478;50.982;7.032;2022-11-15T01:28:37;9.68;;;5.30;;
68176;SDS011;56478;50.982;7.032;2022-11-15T01:31:06;6.63;;;5.82;;
68176;SDS011;56478;50.982;7.032;2022-11-15T01:33:36;6.22;;;5.20;;
68176;SDS011;56478;50.982;7.032;2022-11-15T01:36:05;7.22;;;5.45;;
68176;SDS011;56478;50.982;7.032;2022-11-15T01:38:32;9.80;;;5.47;;
68176;SDS011;56478;50.982;7.032;2022-11-15T01:40:58;8.75;;;5.72;;
68176;SDS011;56478;50.982;7.032;2022-11-15T01:43:25;7.85;;;5.72;;
68176;SDS011;56478;50.982;7.032;2022-11-15T01:45:54;7.88;;;5.60;;
68176;SDS011;56478;50.982;7.032;2022-11-15T01:48:24;8.43;;;5.60;;
68176;SDS011;56478;50.982;7.032;2022-11-15T01:50:53;6.95;;;4.97;;
68176;SDS011;56478;50.982;7.032;2022-11-15T01:53:19;8.57;;;5.60;;
68176;SDS011;56478;50.982;7.032;2022-11-15T01:55:49;7.43;;;5.28;;
68176;SDS011;56478;50.982;7.032;2022-11-15T01:58:14;9.10;;;5.22;;
68176;SDS011;56478;50.982;7.032;2022-11-15T02:00:40;14.95;;;5.60;;
68176;SDS011;56478;50.982;7.032;2022-11-15T02:03:06;5.90;;;5.30;;
68176;SDS011;56478;50.982;7.032;2022-11-15T02:05:31;6.28;;;5.20;;
68176;SDS011;56478;50.982;7.032;2022-11-15T02:07:57;6.88;;;5.30;;
68176;SDS011;56478;50.982;7.032;2022-11-15T02:10:25;6.82;;;5.10;;
68176;SDS011;56478;50.982;7.032;2022-11-15T02:12:50;10.40;;;5.57;;
68176;SDS011;56478;50.982;7.032;2022-11-15T02:15:17;7.07;;;5.05;;
68176;SDS011;56478;50.982;7.032;2022-11-15T02:17:47;6.85;;;5.32;;
68176;SDS011;56478;50.982;7.032;2022-11-15T02:23:44;6.40;;;5.80;;
68176;SDS011;56478;50.982;7.032;2022-11-15T02:29:31;7.82;;;5.60;;
68176;SDS011;56478;50.982;7.032;2022-11-15T02:32:14;7.88;;;5.70;;
68176;SDS011;56478;50.982;7.032;2022-11-15T02:37:43;6.80;;;5.38;;
68176;SDS011;56478;50.982;7.032;2022-11-15T02:43:17;6.32;;;5.00;;
68176;SDS011;56478;50.982;7.032;2022-11-15T02:48:43;7.32;;;5.25;;
68176;SDS011;56478;50.982;7.032;2022-11-15T02:51:10;7.07;;;5.20;;
68176;SDS011;56478;50.982;7.032;2022-11-15T02:53:37;6.10;;;5.13;;
68176;SDS011;56478;50.982;7.032;2022-11-15T02:56:03;6.90;;;5.28;;
68176;SDS011;56478;50.982;7.032;2022-11-15T03:06:42;6.13;;;4.75;;
68176;SDS011;56478;50.982;7.032;2022-11-15T03:11:50;5.43;;;4.63;;
68176;SDS011;56478;50.982;7.032;2022-11-15T03:14:25;5.40;;;4.47;;
68176;SDS011;56478;50.982;7.032;2022-11-15T03:17:13;4.78;;;4.35;;
68176;SDS011;56478;50.982;7.032;2022-11-15T03:19:46;4.93;;;4.47;;
68176;SDS011;56478;50.982;7.032;2022-11-15T03:22:15;6.10;;;4.32;;
68176;SDS011;56478;50.982;7.032;2022-11-15T03:24:43;5.88;;;4.65;;
68176;SDS011;56478;50.982;7.032;2022-11-15T03:27:12;5.00;;;4.50;;
68176;SDS011;56478;50.982;7.032;2022-11-15T03:29:46;7.22;;;4.47;;
68176;SDS011;56478;50.982;7.032;2022-11-15T03:32:17;7.40;;;4.25;;
68176;SDS011;56478;50.982;7.032;2022-11-15T03:37:30;5.55;;;4.75;;
68176;SDS011;56478;50.982;7.032;2022-11-15T03:40:02;5.63;;;4.70;;
68176;SDS011;56478;50.982;7.032;2022-11-15T03:42:30;4.70;;;4.30;;
68176;SDS011;56478;50.982;7.032;2022-11-15T03:45:22;4.47;;;4.07;;
68176;SDS011;56478;50.982;7.032;2022-11-15T03:48:01;4.78;;;4.30;;
68176;SDS011;56478;50.982;7.032;2022-11-15T03:50:34;5.85;;;4.40;;
68176;SDS011;56478;50.982;7.032;2022-11-15T03:53:00;4.57;;;4.18;;
68176;SDS011;56478;50.982;7.032;2022-11-15T03:55:25;6.82;;;4.30;;
68176;SDS011;56478;50.982;7.032;2022-11-15T03:57:51;4.40;;;4.00;;
68176;SDS011;56478;50.982;7.032;2022-11-15T04:00:19;4.70;;;4.22;;
68176;SDS011;56478;50.982;7.032;2022-11-15T04:02:45;4.38;;;4.07;;
68176;SDS011;56478;50.982;7.032;2022-11-15T04:05:10;4.93;;;4.40;;
68176;SDS011;56478;50.982;7.032;2022-11-15T04:07:36;7.40;;;4.93;;
68176;SDS011;56478;50.982;7.032;2022-11-15T04:10:01;5.00;;;4.50;;
68176;SDS011;56478;50.982;7.032;2022-11-15T04:12:28;4.82;;;4.43;;
68176;SDS011;56478;50.982;7.032;2022-11-15T04:17:37;5.68;;;4.75;;
68176;SDS011;56478;50.982;7.032;2022-11-15T04:20:05;5.03;;;4.10;;
68176;SDS011;56478;50.982;7.032;2022-11-15T04:23:00;5.13;;;4.68;;
68176;SDS011;56478;50.982;7.032;2022-11-15T04:25:45;5.97;;;4.72;;
68176;SDS011;56478;50.982;7.032;2022-11-15T04:28:12;4.80;;;4.30;;
68176;SDS011;56478;50.982;7.032;2022-11-15T04:30:38;4.93;;;4.43;;
68176;SDS011;56478;50.982;7.032;2022-11-15T04:33:04;8.10;;;4.72;;
68176;SDS011;56478;50.982;7.032;2022-11-15T04:35:29;4.95;;;4.55;;
68176;SDS011;56478;50.982;7.032;2022-11-15T04:37:56;6.80;;;4.40;;
68176;SDS011;56478;50.982;7.032;2022-11-15T04:40:22;5.32;;;4.82;;
68176;SDS011;56478;50.982;7.032;2022-11-15T04:42:48;5.32;;;4.57;;
68176;SDS011;56478;50.982;7.032;2022-11-15T04:45:13;5.40;;;4.90;;
68176;SDS011;56478;50.982;7.032;2022-11-15T04:47:39;5.38;;;4.85;;
68176;SDS011;56478;50.982;7.032;2022-11-15T04:50:04;5.03;;;4.53;;
68176;SDS011;56478;50.982;7.032;2022-11-15T04:52:30;5.35;;;4.57;;
68176;SDS011;56478;50.982;7.032;2022-11-15T04:54:56;4.43;;;4.13;;
68176;SDS011;56478;50.982;7.032;2022-11-15T04:57:21;5.15;;;4.70;;
68176;SDS011;56478;50.982;7.032;2022-11-15T04:59:47;5.97;;;4.63;;
68176;SDS011;56478;50.982;7.032;2022-11-15T05:02:12;5.05;;;4.65;;
68176;SDS011;56478;50.982;7.032;2022-11-15T05:04:38;5.43;;;4.93;;
68176;SDS011;56478;50.982;7.032;2022-11-15T05:07:04;4.93;;;4.43;;
68176;SDS011;56478;50.982;7.032;2022-11-15T05:09:29;6.60;;;4.80;;
68176;SDS011;56478;50.982;7.032;2022-11-15T05:11:55;5.25;;;4.63;;
68176;SDS011;56478;50.982;7.032;2022-11-15T05:14:20;4.80;;;4.30;;
68176;SDS011;56478;50.982;7.032;2022-11-15T05:16:46;5.10;;;4.70;;
68176;SDS011;56478;50.982;7.032;2022-11-15T05:19:11;5.15;;;4.65;;
68176;SDS011;56478;50.982;7.032;2022-11-15T05:21:37;5.45;;;4.65;;
68176;SDS011;56478;50.982;7.032;2022-11-15T05:24:03;4.95;;;4.47;;
68176;SDS011;56478;50.982;7.032;2022-11-15T05:26:28;5.20;;;4.55;;
68176;SDS011;56478;50.982;7.032;2022-11-15T05:28:55;7.30;;;4.80;;
68176;SDS011;56478;50.982;7.032;2022-11-15T05:31:22;4.10;;;3.80;;
68176;SDS011;56478;50.982;7.032;2022-11-15T05:33:49;5.22;;;4.10;;
68176;SDS011;56478;50.982;7.032;2022-11-15T05:39:00;4.60;;;4.00;;
68176;SDS011;56478;50.982;7.032;2022-11-15T05:41:28;4.47;;;4.10;;
68176;SDS011;56478;50.982;7.032;2022-11-15T05:43:59;4.30;;;3.90;;
68176;SDS011;56478;50.982;7.032;2022-11-15T05:46:26;4.60;;;3.97;;
68176;SDS011;56478;50.982;7.032;2022-11-15T05:48:52;6.30;;;3.95;;
68176;SDS011;56478;50.982;7.032;2022-11-15T05:51:19;4.07;;;3.78;;
68176;SDS011;56478;50.982;7.032;2022-11-15T05:53:46;4.38;;;3.97;;
68176;SDS011;56478;50.982;7.032;2022-11-15T05:56:12;4.68;;;3.70;;
68176;SDS011;56478;50.982;7.032;2022-11-15T05:58:39;4.13;;;3.72;;
68176;SDS011;56478;50.982;7.032;2022-11-15T06:01:04;5.68;;;3.85;;
68176;SDS011;56478;50.982;7.032;2022-11-15T06:03:30;4.47;;;4.18;;
68176;SDS011;56478;50.982;7.032;2022-11-15T06:05:56;4.57;;;3.92;;
68176;SDS011;56478;50.982;7.032;2022-11-15T06:08:22;4.10;;;3.80;;
68176;SDS011;56478;50.982;7.032;2022-11-15T06:10:47;4.60;;;3.80;;
68176;SDS011;56478;50.982;7.032;2022-11-15T06:13:13;4.25;;;3.85;;
68176;SDS011;56478;50.982;7.032;2022-11-15T06:15:38;4.20;;;3.80;;
68176;SDS011;56478;50.982;7.032;2022-11-15T06:18:04;4.85;;;3.58;;
68176;SDS011;56478;50.982;7.032;2022-11-15T06:20:29;5.43;;;3.60;;
68176;SDS011;56478;50.982;7.032;2022-11-15T06:23:02;3.83;;;3.53;;
68176;SDS011;56478;50.982;7.032;2022-11-15T06:25:29;3.65;;;3.35;;
68176;SDS011;56478;50.982;7.032;2022-11-15T06:27:56;4.90;;;3.35;;
68176;SDS011;56478;50.982;7.032;2022-11-15T06:30:24;4.18;;;3.60;;
68176;SDS011;56478;50.982;7.032;2022-11-15T06:32:50;3.58;;;3.28;;
68176;SDS011;56478;50.982;7.032;2022-11-15T06:35:16;3.33;;;3.10;;
68176;SDS011;56478;50.982;7.032;2022-11-15T06:37:41;5.10;;;3.38;;
68176;SDS011;56478;50.982;7.032;2022-11-15T06:40:08;3.50;;;3.20;;
68176;SDS011;56478;50.982;7.032;2022-11-15T06:42:34;3.72;;;3.35;;
68176;SDS011;56478;50.982;7.032;2022-11-15T06:45:00;3.55;;;3.17;;
68176;SDS011;56478;50.982;7.032;2022-11-15T06:47:26;4.70;;;3.53;;
68176;SDS011;56478;50.982;7.032;2022-11-15T06:49:51;4.43;;;3.65;;
68176;SDS011;56478;50.982;7.032;2022-11-15T06:52:17;3.58;;;3.22;;
68176;SDS011;56478;50.982;7.032;2022-11-15T06:54:46;5.38;;;3.30;;
68176;SDS011;56478;50.982;7.032;2022-11-15T06:57:12;10.68;;;3.40;;
68176;SDS011;56478;50.982;7.032;2022-11-15T06:59:37;5.00;;;3.60;;
68176;SDS011;56478;50.982;7.032;2022-11-15T07:02:03;4.43;;;3.70;;
68176;SDS011;56478;50.982;7.032;2022-11-15T07:04:28;3.83;;;3.53;;
68176;SDS011;56478;50.982;7.032;2022-11-15T07:06:54;3.55;;;3.25;;
68176;SDS011;56478;50.982;7.032;2022-11-15T07:09:19;3.95;;;3.60;;
68176;SDS011;56478;50.982;7.032;2022-11-15T07:11:45;4.68;;;3.83;;
68176;SDS011;56478;50.982;7.032;2022-11-15T07:14:11;4.22;;;3.42;;
68176;SDS011;56478;50.982;7.032;2022-11-15T07:16:37;3.95;;;3.45;;
68176;SDS011;56478;50.982;7.032;2022-11-15T07:19:03;5.40;;;3.50;;
68176;SDS011;56478;50.982;7.032;2022-11-15T07:21:28;3.83;;;3.47;;
68176;SDS011;56478;50.982;7.032;2022-11-15T07:23:54;6.32;;;3.88;;
68176;SDS011;56478;50.982;7.032;2022-11-15T07:26:19;3.67;;;3.30;;
68176;SDS011;56478;50.982;7.032;2022-11-15T07:28:45;3.63;;;3.33;;
68176;SDS011;56478;50.982;7.032;2022-11-15T07:31:10;4.00;;;3.60;;
68176;SDS011;56478;50.982;7.032;2022-11-15T07:33:36;5.90;;;3.47;;
68176;SDS011;56478;50.982;7.032;2022-11-15T07:36:03;3.47;;;3.17;;
68176;SDS011;56478;50.982;7.032;2022-11-15T07:38:32;6.55;;;3.17;;
68176;SDS011;56478;50.982;7.032;2022-11-15T07:40:58;3.15;;;2.78;;
68176;SDS011;56478;50.982;7.032;2022-11-15T07:43:27;3.45;;;3.15;;
68176;SDS011;56478;50.982;7.032;2022-11-15T07:45:54;3.10;;;2.83;;
68176;SDS011;56478;50.982;7.032;2022-11-15T07:48:20;5.45;;;2.83;;
68176;SDS011;56478;50.982;7.032;2022-11-15T07:50:45;3.00;;;2.67;;
68176;SDS011;56478;50.982;7.032;2022-11-15T07:53:12;4.18;;;2.58;;
68176;SDS011;56478;50.982;7.032;2022-11-15T07:55:39;3.10;;;2.67;;
68176;SDS011;56478;50.982;7.032;2022-11-15T07:58:06;2.58;;;2.38;;
68176;SDS011;56478;50.982;7.032;2022-11-15T08:00:33;3.67;;;2.60;;
68176;SDS011;56478;50.982;7.032;2022-11-15T08:03:03;3.15;;;2.53;;
68176;SDS011;56478;50.982;7.032;2022-11-15T08:05:33;4.82;;;2.40;;
68176;SDS011;56478;50.982;7.032;2022-11-15T08:08:00;2.60;;;2.40;;
68176;SDS011;56478;50.982;7.032;2022-11-15T08:10:26;3.25;;;2.30;;
68176;SDS011;56478;50.982;7.032;2022-11-15T08:12:59;5.07;;;2.53;;
68176;SDS011;56478;50.982;7.032;2022-11-15T08:15:29;2.88;;;2.60;;
68176;SDS011;56478;50.982;7.032;2022-11-15T08:17:55;2.45;;;2.25;;
68176;SDS011;56478;50.982;7.032;2022-11-15T08:20:22;2.70;;;2.50;;
68176;SDS011;56478;50.982;7.032;2022-11-15T08:22:48;2.63;;;2.42;;
68176;SDS011;56478;50.982;7.032;2022-11-15T08:25:14;3.78;;;2.65;;
68176;SDS011;56478;50.982;7.032;2022-11-15T08:27:39;3.53;;;2.33;;
68176;SDS011;56478;50.982;7.032;2022-11-15T08:30:05;6.28;;;2.50;;
68176;SDS011;56478;50.982;7.032;2022-11-15T08:32:31;2.95;;;2.50;;
68176;SDS011;56478;50.982;7.032;2022-11-15T08:34:57;2.92;;;2.53;;
68176;SDS011;56478;50.982;7.032;2022-11-15T08:37:22;2.70;;;2.50;;
68176;SDS011;56478;50.982;7.032;2022-11-15T08:39:48;2.90;;;2.65;;
68176;SDS011;56478;50.982;7.032;2022-11-15T08:42:13;3.50;;;2.88;;
68176;SDS011;56478;50.982;7.032;2022-11-15T08:44:40;5.65;;;2.55;;
68176;SDS011;56478;50.982;7.032;2022-11-15T08:47:05;3.08;;;2.55;;
68176;SDS011;56478;50.982;7.032;2022-11-15T08:49:30;3.20;;;2.50;;
68176;SDS011;56478;50.982;7.032;2022-11-15T08:51:56;2.50;;;2.30;;
68176;SDS011;56478;50.982;7.032;2022-11-15T08:54:21;3.03;;;2.67;;
68176;SDS011;56478;50.982;7.032;2022-11-15T08:56:47;2.80;;;2.60;;
68176;SDS011;56478;50.982;7.032;2022-11-15T08:59:12;2.80;;;2.55;;
68176;SDS011;56478;50.982;7.032;2022-11-15T09:01:38;4.38;;;2.30;;
68176;SDS011;56478;50.982;7.032;2022-11-15T09:04:03;3.75;;;2.33;;
68176;SDS011;56478;50.982;7.032;2022-11-15T09:06:29;2.72;;;2.20;;
68176;SDS011;56478;50.982;7.032;2022-11-15T09:08:55;3.28;;;2.45;;
68176;SDS011;56478;50.982;7.032;2022-11-15T09:11:21;6.40;;;2.42;;
68176;SDS011;56478;50.982;7.032;2022-11-15T09:13:48;2.50;;;2.17;;
68176;SDS011;56478;50.982;7.032;2022-11-15T09:16:14;2.55;;;2.35;;
68176;SDS011;56478;50.982;7.032;2022-11-15T09:18:40;2.20;;;2.00;;
68176;SDS011;56478;50.982;7.032;2022-11-15T09:21:06;2.17;;;1.98;;
68176;SDS011;56478;50.982;7.032;2022-11-15T09:23:32;6.97;;;2.10;;
68176;SDS011;56478;50.982;7.032;2022-11-15T09:25:58;3.88;;;2.03;;
68176;SDS011;56478;50.982;7.032;2022-11-15T09:28:28;2.35;;;2.10;;
68176;SDS011;56478;50.982;7.032;2022-11-15T09:30:57;2.17;;;1.80;;
68176;SDS011;56478;50.982;7.032;2022-11-15T09:33:24;2.05;;;1.85;;
68176;SDS011;56478;50.982;7.032;2022-11-15T09:35:49;2.70;;;1.73;;
68176;SDS011;56478;50.982;7.032;2022-11-15T09:38:15;2.42;;;1.70;;
68176;SDS011;56478;50.982;7.032;2022-11-15T09:40:40;3.20;;;1.90;;
68176;SDS011;56478;50.982;7.032;2022-11-15T09:43:10;2.08;;;1.95;;
68176;SDS011;56478;50.982;7.032;2022-11-15T09:48:48;1.67;;;1.40;;
68176;SDS011;56478;50.982;7.032;2022-11-15T09:51:30;1.70;;;1.60;;
68176;SDS011;56478;50.982;7.032;2022-11-15T09:54:01;2.55;;;1.52;;
68176;SDS011;56478;50.982;7.032;2022-11-15T09:56:46;7.35;;;1.85;;
68176;SDS011;56478;50.982;7.032;2022-11-15T10:04:25;1.60;;;1.50;;
68176;SDS011;56478;50.982;7.032;2022-11-15T10:07:02;2.03;;;1.50;;
68176;SDS011;56478;50.982;7.032;2022-11-15T10:09:37;3.53;;;1.40;;
68176;SDS011;56478;50.982;7.032;2022-11-15T10:12:08;4.10;;;1.65;;
68176;SDS011;56478;50.982;7.032;2022-11-15T10:14:35;3.10;;;1.30;;
68176;SDS011;56478;50.982;7.032;2022-11-15T10:20:06;1.42;;;1.30;;
68176;SDS011;56478;50.982;7.032;2022-11-15T10:22:46;3.35;;;1.23;;
68176;SDS011;56478;50.982;7.032;2022-11-15T10:27:39;2.13;;;1.33;;
68176;SDS011;56478;50.982;7.032;2022-11-15T10:30:16;1.70;;;1.30;;
68176;SDS011;56478;50.982;7.032;2022-11-15T10:32:43;1.48;;;1.33;;
68176;SDS011;56478;50.982;7.032;2022-11-15T10:35:29;1.88;;;1.25;;
68176;SDS011;56478;50.982;7.032;2022-11-15T10:38:07;1.50;;;1.40;;
68176;SDS011;56478;50.982;7.032;2022-11-15T10:40:35;1.50;;;1.40;;
68176;SDS011;56478;50.982;7.032;2022-11-15T10:43:13;1.33;;;1.02;;
68176;SDS011;56478;50.982;7.032;2022-11-15T10:45:40;1.20;;;1.10;;
68176;SDS011;56478;50.982;7.032;2022-11-15T10:50:38;1.58;;;1.15;;
68176;SDS011;56478;50.982;7.032;2022-11-15T10:53:20;2.80;;;1.05;;
68176;SDS011;56478;50.982;7.032;2022-11-15T10:55:50;3.15;;;1.40;;
68176;SDS011;56478;50.982;7.032;2022-11-15T11:03:36;2.92;;;1.27;;
68176;SDS011;56478;50.982;7.032;2022-11-15T11:08:30;1.20;;;1.10;;
68176;SDS011;56478;50.982;7.032;2022-11-15T11:10:57;1.10;;;1.00;;
68176;SDS011;56478;50.982;7.032;2022-11-15T11:18:49;1.05;;;1.05;;
68176;SDS011;56478;50.982;7.032;2022-11-15T11:24:29;2.67;;;1.00;;
68176;SDS011;56478;50.982;7.032;2022-11-15T11:27:13;1.45;;;1.02;;
68176;SDS011;56478;50.982;7.032;2022-11-15T11:32:54;0.90;;;0.85;;
68176;SDS011;56478;50.982;7.032;2022-11-15T11:43:10;2.83;;;1.10;;
68176;SDS011;56478;50.982;7.032;2022-11-15T11:48:55;1.88;;;1.30;;
68176;SDS011;56478;50.982;7.032;2022-11-15T11:51:33;2.08;;;1.13;;
68176;SDS011;56478;50.982;7.032;2022-11-15T11:54:06;3.42;;;1.10;;
68176;SDS011;56478;50.982;7.032;2022-11-15T11:56:39;2.22;;;1.20;;
68176;SDS011;56478;50.982;7.032;2022-11-15T12:01:52;2.80;;;1.20;;
68176;SDS011;56478;50.982;7.032;2022-11-15T12:06:54;2.30;;;1.05;;
68176;SDS011;56478;50.982;7.032;2022-11-15T12:18:37;1.25;;;1.15;;
68176;SDS011;56478;50.982;7.032;2022-11-15T12:21:05;2.33;;;1.17;;
68176;SDS011;56478;50.982;7.032;2022-11-15T12:23:44;2.20;;;1.35;;
68176;SDS011;56478;50.982;7.032;2022-11-15T12:26:16;2.03;;;1.27;;
68176;SDS011;56478;50.982;7.032;2022-11-15T12:28:51;1.08;;;1.08;;
68176;SDS011;56478;50.982;7.032;2022-11-15T12:33:48;3.10;;;1.10;;
68176;SDS011;56478;50.982;7.032;2022-11-15T12:41:28;1.55;;;1.05;;
68176;SDS011;56478;50.982;7.032;2022-11-15T12:43:55;3.47;;;1.23;;
68176;SDS011;56478;50.982;7.032;2022-11-15T12:49:09;4.25;;;0.98;;
68176;SDS011;56478;50.982;7.032;2022-11-15T13:17:47;1.48;;;1.30;;
68176;SDS011;56478;50.982;7.032;2022-11-15T13:22:41;3.67;;;1.63;;
68176;SDS011;56478;50.982;7.032;2022-11-15T13:30:39;7.40;;;1.95;;
68176;SDS011;56478;50.982;7.032;2022-11-15T13:33:17;3.38;;;2.35;;
68176;SDS011;56478;50.982;7.032;2022-11-15T13:38:25;3.08;;;1.70;;
68176;SDS011;56478;50.982;7.032;2022-11-15T13:40:51;2.15;;;1.80;;
68176;SDS011;56478;50.982;7.032;2022-11-15T13:46:03;3.10;;;1.95;;
68176;SDS011;56478;50.982;7.032;2022-11-15T13:48:57;3.80;;;1.90;;
68176;SDS011;56478;50.982;7.032;2022-11-15T13:51:33;2.65;;;1.70;;
68176;SDS011;56478;50.982;7.032;2022-11-15T13:54:30;2.20;;;2.00;;
68176;SDS011;56478;50.982;7.032;2022-11-15T13:57:05;4.50;;;2.35;;
68176;SDS011;56478;50.982;7.032;2022-11-15T13:59:54;3.80;;;1.80;;
68176;SDS011;56478;50.982;7.032;2022-11-15T14:02:33;1.95;;;1.70;;
68176;SDS011;56478;50.982;7.032;2022-11-15T14:05:19;1.95;;;1.85;;
68176;SDS011;56478;50.982;7.032;2022-11-15T14:07:57;2.30;;;2.10;;
68176;SDS011;56478;50.982;7.032;2022-11-15T14:10:37;3.78;;;2.10;;
68176;SDS011;56478;50.982;7.032;2022-11-15T14:13:03;3.05;;;2.05;;
68176;SDS011;56478;50.982;7.032;2022-11-15T14:15:36;1.90;;;1.80;;
68176;SDS011;56478;50.982;7.032;2022-11-15T14:18:04;2.00;;;1.90;;
68176;SDS011;56478;50.982;7.032;2022-11-15T14:23:05;2.20;;;2.00;;
68176;SDS011;56478;50.982;7.032;2022-11-15T14:25:51;2.83;;;2.40;;
68176;SDS011;56478;50.982;7.032;2022-11-15T14:30:50;3.38;;;1.75;;
68176;SDS011;56478;50.982;7.032;2022-11-15T14:33:21;6.13;;;1.98;;
68176;SDS011;56478;50.982;7.032;2022-11-15T14:35:54;1.90;;;1.80;;
68176;SDS011;56478;50.982;7.032;2022-11-15T14:38:22;2.37;;;2.13;;
68176;SDS011;56478;50.982;7.032;2022-11-15T14:43:16;2.55;;;2.20;;
68176;SDS011;56478;50.982;7.032;2022-11-15T14:45:42;1.98;;;1.85;;
68176;SDS011;56478;50.982;7.032;2022-11-15T14:48:07;2.15;;;2.00;;
68176;SDS011;56478;50.982;7.032;2022-11-15T14:50:33;2.78;;;2.40;;
68176;SDS011;56478;50.982;7.032;2022-11-15T14:52:59;2.35;;;2.10;;
68176;SDS011;56478;50.982;7.032;2022-11-15T14:55:29;2.08;;;1.98;;
68176;SDS011;56478;50.982;7.032;2022-11-15T14:58:00;2.08;;;1.98;;
68176;SDS011;56478;50.982;7.032;2022-11-15T15:00:30;2.33;;;2.15;;
68176;SDS011;56478;50.982;7.032;2022-11-15T15:02:56;3.45;;;2.17;;
68176;SDS011;56478;50.982;7.032;2022-11-15T15:05:24;2.22;;;2.00;;
68176;SDS011;56478;50.982;7.032;2022-11-15T15:07:57;2.42;;;2.22;;
68176;SDS011;56478;50.982;7.032;2022-11-15T15:10:23;2.75;;;1.95;;
68176;SDS011;56478;50.982;7.032;2022-11-15T15:12:50;2.40;;;2.20;;
68176;SDS011;56478;50.982;7.032;2022-11-15T15:15:18;1.92;;;1.83;;
68176;SDS011;56478;50.982;7.032;2022-11-15T15:17:47;2.95;;;2.15;;
68176;SDS011;56478;50.982;7.032;2022-11-15T15:20:12;4.50;;;2.00;;
68176;SDS011;56478;50.982;7.032;2022-11-15T15:22:38;3.00;;;1.90;;
68176;SDS011;56478;50.982;7.032;2022-11-15T15:27:59;4.00;;;1.80;;
68176;SDS011;56478;50.982;7.032;2022-11-15T15:30:27;2.10;;;1.80;;
68176;SDS011;56478;50.982;7.032;2022-11-15T15:32:53;2.95;;;1.77;;
68176;SDS011;56478;50.982;7.032;2022-11-15T15:35:19;2.10;;;1.90;;
68176;SDS011;56478;50.982;7.032;2022-11-15T15:37:45;1.90;;;1.80;;
68176;SDS011;56478;50.982;7.032;2022-11-15T15:40:14;2.25;;;2.05;;
68176;SDS011;56478;50.982;7.032;2022-11-15T15:42:41;2.10;;;2.00;;
68176;SDS011;56478;50.982;7.032;2022-11-15T15:45:07;2.50;;;2.30;;
68176;SDS011;56478;50.982;7.032;2022-11-15T15:47:34;2.88;;;2.00;;
68176;SDS011;56478;50.982;7.032;2022-11-15T15:50:00;3.25;;;2.08;;
68176;SDS011;56478;50.982;7.032;2022-11-15T15:52:25;2.17;;;2.08;;
68176;SDS011;56478;50.982;7.032;2022-11-15T15:54:51;2.47;;;2.25;;
68176;SDS011;56478;50.982;7.032;2022-11-15T15:57:16;2.72;;;2.13;;
68176;SDS011;56478;50.982;7.032;2022-11-15T15:59:42;1.85;;;1.75;;
68176;SDS011;56478;50.982;7.032;2022-11-15T16:02:11;1.77;;;1.67;;
68176;SDS011;56478;50.982;7.032;2022-11-15T16:04:40;1.80;;;1.70;;
